CheckWX is a tool to help pilots better visualize weather data.  It is not intended as a substitute for an official pre-flight weather briefing.

19:50:04 UTC

CYHE METAR
Hope Airport
Hope, Canada
Current

50 mins ago

CYHE 261900Z AUTO 11004KT 9SM SCT080 SCT130 21/13 A2987 RMK SLP115 DENSITY ALT 900FT
Observed
May-26 @ 19:00 UTC
Wind
  • 110° at 4 KTS
Visibility
9 SM
Flight Rules
VFR
Cloud Levels
  • Scattered at 8,000' AGL
  • Scattered at 13,000' AGL
Temperature
21°C / 70°F
Dewpoint
13°C / 55°F
Humidity
60%
Altimeter
29.87" Hg
Pressure
1011.52 hPa
Previous

2 hours ago

CYHE 261800Z AUTO 09005KT 080V180 9SM CLR 21/12 A2987 RMK SLP115 DENSITY ALT 900FT
Observed
May-26 @ 18:00 UTC
Wind
  • 090° at 5 KTS
Visibility
9 SM
Flight Rules
VFR
Cloud Levels
  • Clear skies
Temperature
21°C / 70°F
Dewpoint
12°C / 54°F
Humidity
57%
Altimeter
29.87" Hg
Pressure
1011.52 hPa
Previous

3 hours ago

CYHE 261700Z AUTO 08005KT 060V120 9SM SCT110 18/13 A2989 RMK SLP122 DENSITY ALT 500FT
Observed
May-26 @ 17:00 UTC
Wind
  • 080° at 5 KTS
Visibility
9 SM
Flight Rules
VFR
Cloud Levels
  • Scattered at 11,000' AGL
Temperature
18°C / 64°F
Dewpoint
13°C / 55°F
Humidity
73%
Altimeter
29.89" Hg
Pressure
1012.22 hPa